Airfield :
LOGIN :

Register | Disclaimer

   EN    FR    IT 

 










Legend :    VFR   Marginal VFR   IFR   Intensive IFR   Very Intensive IFR
Visi :
Ceiling :
>= 8 km
>= 3000ft
5 to 8 km
1000 to 3000 ft
1500m to 5 km
500 to 1000 ft
800 to 1500m
200 to 500 ft
< 800m
< 200 ft
Symbols :   Thunderstorms  Fog  Heavy snow  Heavy precipitations  Wind > 20 kt
SIGMETs :     Misc.  Thunderstorms  Icing  Turbulence  Mountain Waves  Volcanic Ashes







- Airport Elevation : 1411 ft
- IATA code : SZG


LOWS - Salzburg

CURRENT METAR :
  • 231750Z 36005KT CAVOK 11/07 Q1015 NOSIG

EXPIRED METARs :
  • 231720Z 02006KT 350V050 CAVOK 12/07 Q1015 NOSIG
  • 231650Z 05006KT 010V070 CAVOK 13/08 Q1015 NOSIG
  • 231620Z 02007KT CAVOK 13/08 Q1015 NOSIG
  • 231550Z 03007KT 360V060 9999 FEW050 14/08 Q1015 NOSIG
  • 231520Z 02006KT 350V050 9999 FEW050 15/07 Q1014 NOSIG

TAF TAF LOWS
Valid from the 23 at 18:00 until the 24 at 18:00 UTC


231715Z 2318/2418 15004KT CAVOK TX15/2415Z TN02/2403Z
TEMPO 2400/2408 4000 BR NSC
PROB30
TEMPO 2404/2406 VRB02KT 1200 BCFG BKN015
BECMG 2408/2410 05005KT
No reported NOTAMs for that airfield.



MET'MAP, your aeronautical weather chart ! - Copyright ORBIFLY December 2007 - Disclaimer

ORBIFLY MET'MAP TEAM :

Programming & Development : Alexandra Zaïnal
Concept & Development : Baudouin d'Aumeries
Co-Development & Prog : Marc-Olivier Méhu
Technical & hardware support : Manuel Goepfert

Contact : metmap@orbifly.com




SOURCES & CREDITS :

   NOAA